createdAt,value
2022-10-05T00:01:32.518Z,3.90
2022-10-05T00:06:39.715Z,3.90
2022-10-05T00:11:56.517Z,4.23
2022-10-05T00:17:13.989Z,3.67
2022-10-05T00:22:20.889Z,3.27
2022-10-05T00:27:38.990Z,3.30
2022-10-05T00:32:46.761Z,3.70
2022-10-05T00:37:58.269Z,2.90
2022-10-05T00:43:14.922Z,3.10
2022-10-05T00:48:29.595Z,4.10
2022-10-05T00:53:39.392Z,4.90
2022-10-05T00:58:55.399Z,4.73
2022-10-05T01:04:09.409Z,4.83
2022-10-05T01:09:16.950Z,6.60
2022-10-05T01:14:24.780Z,6.53
2022-10-05T01:19:50.478Z,7.07
2022-10-05T01:25:04.386Z,6.07
2022-10-05T01:30:15.685Z,5.93
2022-10-05T01:35:36.852Z,6.00
2022-10-05T01:40:48.061Z,7.97
2022-10-05T01:45:59.052Z,8.03
2022-10-05T01:51:06.525Z,6.87
2022-10-05T01:56:22.027Z,9.83
2022-10-05T02:01:38.400Z,8.27
2022-10-05T02:06:47.573Z,8.53
2022-10-05T02:11:58.656Z,8.20
2022-10-05T02:17:13.827Z,7.73
2022-10-05T02:22:37.311Z,9.03
2022-10-05T02:27:51.778Z,8.87
2022-10-05T02:33:11.489Z,6.90
2022-10-05T02:38:27.245Z,6.83
2022-10-05T02:43:42.820Z,6.20
2022-10-05T02:49:17.201Z,5.60
2022-10-05T02:54:34.387Z,5.80
2022-10-05T02:59:44.990Z,5.30
2022-10-05T03:04:59.871Z,4.43
2022-10-05T03:10:10.915Z,4.33
2022-10-05T03:15:23.147Z,6.23
2022-10-05T03:20:33.704Z,7.30
2022-10-05T03:25:58.062Z,7.97
2022-10-05T03:31:05.383Z,7.00
2022-10-05T03:36:21.091Z,6.93
2022-10-05T03:41:33.696Z,6.90
2022-10-05T03:46:52.714Z,7.67
2022-10-05T03:52:03.757Z,8.67
2022-10-05T03:57:12.327Z,8.67
2022-10-05T04:02:23.341Z,10.73
2022-10-05T04:07:35.501Z,5.13
2022-10-05T04:12:43.250Z,6.03
2022-10-05T04:17:48.400Z,5.43
2022-10-05T04:22:55.878Z,5.67
2022-10-05T04:28:07.097Z,6.10
2022-10-05T04:33:12.862Z,6.37
2022-10-05T04:38:31.743Z,5.57
2022-10-05T04:43:43.681Z,4.80
2022-10-05T04:48:58.531Z,4.70
2022-10-05T04:54:07.510Z,4.67
2022-10-05T04:59:29.840Z,4.87
2022-10-05T05:04:51.947Z,4.60
2022-10-05T05:10:14.905Z,4.00
2022-10-05T05:15:24.196Z,5.27
2022-10-05T05:20:34.471Z,5.43
2022-10-05T05:25:43.088Z,4.43
2022-10-05T05:30:50.877Z,7.00
2022-10-05T05:36:14.169Z,48.30
2022-10-05T05:41:21.041Z,18.03
2022-10-05T05:46:51.294Z,14.03
2022-10-05T05:51:53.691Z,8.03
2022-10-05T05:56:59.932Z,6.80
2022-10-05T06:02:08.419Z,7.10
2022-10-05T06:07:15.954Z,6.90
2022-10-05T06:12:20.996Z,6.80
2022-10-05T06:17:29.652Z,7.30
2022-10-05T06:22:36.057Z,10.43
2022-10-05T06:27:59.209Z,9.50
2022-10-05T06:33:08.185Z,9.23
2022-10-05T06:38:26.175Z,9.27
2022-10-05T06:43:35.822Z,8.10
2022-10-05T06:49:11.156Z,7.13
2022-10-05T06:54:47.812Z,7.07
2022-10-05T06:59:59.197Z,6.53
2022-10-05T07:05:20.456Z,6.53
2022-10-05T07:10:28.592Z,7.27
2022-10-05T07:15:43.296Z,7.53
2022-10-05T07:20:54.611Z,6.10
2022-10-05T07:26:03.080Z,5.23
2022-10-05T07:31:10.829Z,4.67
2022-10-05T07:36:35.737Z,4.97
2022-10-05T07:41:43.654Z,5.80
2022-10-05T07:46:55.332Z,4.43
2022-10-05T07:52:01.792Z,4.43
2022-10-05T07:57:08.923Z,3.90
2022-10-05T08:02:20.399Z,3.90
2022-10-05T08:12:32.069Z,4.10
2022-10-05T08:17:49.537Z,4.23
2022-10-05T08:22:55.637Z,3.63
2022-10-05T08:28:04.873Z,3.60
2022-10-05T08:33:11.928Z,3.13
2022-10-05T08:38:17.595Z,2.83
2022-10-05T08:43:34.452Z,3.00
2022-10-05T08:48:59.521Z,2.83
2022-10-05T08:54:23.992Z,2.60
2022-10-05T08:59:33.243Z,2.77
2022-10-05T09:04:44.298Z,2.63
2022-10-05T09:10:00.795Z,2.90
2022-10-05T09:15:25.365Z,2.73
2022-10-05T09:20:35.321Z,3.03
2022-10-05T09:25:57.335Z,2.60
2022-10-05T09:31:34.018Z,2.27
2022-10-05T09:37:04.611Z,1.70
2022-10-05T09:42:38.103Z,1.77
2022-10-05T09:47:49.757Z,1.90
2022-10-05T09:53:02.084Z,1.98
2022-10-05T09:58:16.553Z,1.42
2022-10-05T10:03:47.852Z,1.60
2022-10-05T10:09:03.491Z,1.40
2022-10-05T10:14:19.971Z,1.23
2022-10-05T10:19:29.794Z,2.08
2022-10-05T10:24:44.324Z,2.20
2022-10-05T10:30:20.918Z,1.98
2022-10-05T10:35:32.263Z,1.92
2022-10-05T10:40:39.197Z,2.22
2022-10-05T10:45:49.385Z,2.28
2022-10-05T10:51:12.737Z,2.60
2022-10-05T10:56:30.209Z,2.10
2022-10-05T11:01:35.816Z,2.28
2022-10-05T11:06:57.978Z,2.47
2022-10-05T11:12:22.746Z,2.78
2022-10-05T11:17:31.825Z,2.80
2022-10-05T11:22:40.938Z,3.55
2022-10-05T11:27:52.254Z,2.90
2022-10-05T11:33:02.253Z,2.90
2022-10-05T11:38:17.123Z,3.15
2022-10-05T11:43:37.737Z,3.13
2022-10-05T11:48:50.136Z,3.50
2022-10-05T11:53:58.973Z,2.83
2022-10-05T11:59:09.669Z,2.13
2022-10-05T12:04:18.737Z,2.30
2022-10-05T12:09:32.305Z,2.78
2022-10-05T12:14:43.198Z,3.28
2022-10-05T12:19:49.163Z,2.92
2022-10-05T12:25:01.934Z,2.77
2022-10-05T12:30:14.696Z,2.40
2022-10-05T12:35:43.578Z,2.38
2022-10-05T12:40:46.263Z,2.33
2022-10-05T12:45:56.867Z,2.70
2022-10-05T12:51:02.821Z,2.55
2022-10-05T12:56:10.893Z,2.22
2022-10-05T13:01:20.328Z,2.22
2022-10-05T13:06:26.047Z,2.60
2022-10-05T13:11:32.705Z,2.80
2022-10-05T13:16:39.902Z,2.63
2022-10-05T13:21:55.204Z,2.58
2022-10-05T13:27:01.848Z,2.33
2022-10-05T13:32:08.739Z,2.40
2022-10-05T13:37:17.902Z,2.30
2022-10-05T13:42:26.149Z,2.22
2022-10-05T13:47:32.928Z,2.10
2022-10-05T13:52:42.368Z,2.40
2022-10-05T13:57:52.465Z,2.53
2022-10-05T14:02:59.178Z,2.55
2022-10-05T14:08:17.280Z,2.33
2022-10-05T14:13:26.814Z,2.17
2022-10-05T14:18:32.921Z,2.42
2022-10-05T14:23:36.447Z,2.40
2022-10-05T14:28:43.751Z,2.57
2022-10-05T14:33:51.210Z,2.10
2022-10-05T14:38:58.013Z,2.10
2022-10-05T14:44:03.137Z,2.13
2022-10-05T14:49:18.327Z,2.38
2022-10-05T14:54:25.379Z,2.10
2022-10-05T14:59:35.904Z,1.90
2022-10-05T15:04:43.924Z,2.07
2022-10-05T15:09:55.121Z,2.33
2022-10-05T15:15:02.321Z,2.35
2022-10-05T15:20:16.313Z,1.90
2022-10-05T15:25:27.132Z,2.50
2022-10-05T15:30:33.225Z,2.80
2022-10-05T15:35:58.360Z,2.03
2022-10-05T15:41:11.532Z,2.00
2022-10-05T15:46:18.505Z,2.97
2022-10-05T15:51:26.799Z,2.20
2022-10-05T15:56:34.035Z,2.43
2022-10-05T16:01:45.339Z,2.63
2022-10-05T16:07:08.795Z,1.73
2022-10-05T16:12:19.672Z,1.90
2022-10-05T16:17:33.941Z,2.33
2022-10-05T16:22:43.607Z,2.60
2022-10-05T16:27:54.266Z,2.50
2022-10-05T16:33:02.261Z,2.03
2022-10-05T16:38:11.452Z,2.27
2022-10-05T16:43:23.045Z,2.10
2022-10-05T16:48:27.572Z,1.90
2022-10-05T16:53:33.461Z,2.47
2022-10-05T16:58:43.072Z,2.50
2022-10-05T17:03:52.536Z,2.23
2022-10-05T17:09:12.153Z,2.03
2022-10-05T17:14:28.377Z,1.83
2022-10-05T17:19:39.150Z,1.97
2022-10-05T17:24:53.356Z,2.00
2022-10-05T17:30:18.143Z,1.97
2022-10-05T17:35:23.307Z,1.80
2022-10-05T17:40:32.274Z,1.93
2022-10-05T17:45:54.400Z,2.00
2022-10-05T17:51:16.993Z,2.03
2022-10-05T17:56:20.602Z,1.70
2022-10-05T18:01:30.477Z,1.80
2022-10-05T18:06:37.565Z,1.70
2022-10-05T18:11:42.427Z,1.50
2022-10-05T18:16:58.702Z,1.40
2022-10-05T18:22:04.779Z,1.67
2022-10-05T18:27:16.296Z,1.13
2022-10-05T18:32:23.798Z,1.33
2022-10-05T18:37:32.896Z,2.37
2022-10-05T18:42:40.780Z,2.03
2022-10-05T18:47:49.818Z,1.70
2022-10-05T18:53:01.828Z,2.20
2022-10-05T18:58:12.188Z,1.40
2022-10-05T19:03:19.017Z,1.70
2022-10-05T19:08:30.842Z,1.87
2022-10-05T19:13:43.458Z,1.73
2022-10-05T19:19:05.159Z,2.60
2022-10-05T19:24:20.978Z,1.50
2022-10-05T19:29:32.338Z,1.63
2022-10-05T19:34:44.731Z,1.23
2022-10-05T19:39:53.685Z,1.30
2022-10-05T19:45:02.723Z,1.17
2022-10-05T19:50:20.014Z,2.80
2022-10-05T19:55:32.458Z,1.40
2022-10-05T20:00:37.789Z,1.27
2022-10-05T20:05:42.533Z,1.20
2022-10-05T20:10:48.063Z,1.40
2022-10-05T20:16:25.143Z,1.60
2022-10-05T20:21:38.690Z,1.40
2022-10-05T20:27:02.363Z,1.40
2022-10-05T20:32:10.025Z,2.10
2022-10-05T20:37:17.893Z,1.90
2022-10-05T20:42:24.460Z,2.10
2022-10-05T20:47:32.470Z,2.77
2022-10-05T20:52:37.325Z,5.17
2022-10-05T20:57:43.575Z,1.60
2022-10-05T21:02:48.782Z,2.47
2022-10-05T21:07:59.565Z,2.30
2022-10-05T21:13:09.744Z,2.10
2022-10-05T21:18:17.394Z,2.10
2022-10-05T21:23:23.956Z,2.00
2022-10-05T21:28:30.718Z,2.07
2022-10-05T21:33:39.320Z,1.93
2022-10-05T21:38:44.111Z,2.07
2022-10-05T21:43:49.645Z,1.80
2022-10-05T21:48:54.050Z,2.10
2022-10-05T21:54:01.939Z,1.93
2022-10-05T21:59:09.024Z,2.10
2022-10-05T22:04:12.849Z,1.93
2022-10-05T22:09:17.014Z,2.20
2022-10-05T22:14:26.845Z,1.97
2022-10-05T22:19:30.665Z,2.20
2022-10-05T22:24:34.783Z,2.00
2022-10-05T22:29:48.526Z,2.13
2022-10-05T22:34:58.985Z,2.20
2022-10-05T22:40:02.719Z,1.90
2022-10-05T22:45:11.334Z,2.10
2022-10-05T22:50:16.898Z,2.00
2022-10-05T22:55:24.959Z,2.03
2022-10-05T23:00:56.252Z,2.00
2022-10-05T23:06:00.747Z,1.90
2022-10-05T23:11:04.714Z,2.00
2022-10-05T23:16:11.262Z,1.97
2022-10-05T23:21:14.997Z,1.60
2022-10-05T23:26:19.840Z,2.07
2022-10-05T23:31:25.999Z,1.80
2022-10-05T23:36:32.447Z,2.10
2022-10-05T23:41:45.850Z,1.60
2022-10-05T23:46:52.400Z,2.10
2022-10-05T23:51:56.124Z,1.70
2022-10-05T23:57:00.038Z,1.80
